Time;durP1;ratioP1;P1;durP2;ratioP2;P2;SDS_P1;SDS_P2;PMS_P1;PMS_P2;Temp;Humidity;BMP_temperature;BMP_pressure;BME280_temperature;BME280_humidity;BME280_pressure;Samples;Min_cycle;Max_cycle;Signal;HPM_P1;HPM_P2
2023/08/27 00:00:23;;;;;;;1.75;0.90;;;22.30;64.70;;;;;;5054277;28;20922;-73
2023/08/27 00:02:49;;;;;;;0.80;0.80;;;22.30;64.60;;;;;;5054370;28;20617;-73
2023/08/27 00:05:14;;;;;;;0.75;0.75;;;22.30;64.70;;;;;;5052766;28;20175;-73
2023/08/27 00:07:40;;;;;;;0.90;0.80;;;22.30;64.70;;;;;;5053334;28;20233;-75
2023/08/27 00:10:06;;;;;;;0.82;0.82;;;22.30;65.60;;;;;;5053942;28;20186;-73
2023/08/27 00:12:32;;;;;;;1.00;0.90;;;22.30;64.80;;;;;;5053174;28;20264;-72
2023/08/27 00:14:57;;;;;;;0.98;0.90;;;22.30;64.80;;;;;;5053803;28;20225;-71
2023/08/27 00:17:23;;;;;;;1.33;0.93;;;22.30;64.70;;;;;;5053748;28;20167;-71
2023/08/27 00:19:48;;;;;;;0.70;0.70;;;22.20;64.60;;;;;;5053300;28;20194;-72
2023/08/27 00:22:15;;;;;;;0.73;0.73;;;22.20;65.50;;;;;;5053644;28;20170;-71
2023/08/27 00:24:40;;;;;;;0.90;0.90;;;22.30;64.80;;;;;;5054049;28;20171;-72
2023/08/27 00:27:06;;;;;;;0.93;0.93;;;22.20;64.70;;;;;;5052757;28;20206;-73
2023/08/27 00:29:32;;;;;;;1.40;0.70;;;22.30;64.70;;;;;;5054131;28;20190;-73
2023/08/27 00:31:57;;;;;;;0.85;0.85;;;22.20;64.70;;;;;;5053725;28;20253;-76
2023/08/27 00:34:31;;;;;;;1.17;0.90;;;22.20;65.60;;;;;;5053017;28;20209;-73
2023/08/27 00:36:56;;;;;;;0.68;0.60;;;22.20;65.50;;;;;;5053489;28;20254;-73
2023/08/27 00:39:22;;;;;;;0.70;0.70;;;22.20;64.70;;;;;;5053129;28;20254;-72
2023/08/27 00:41:47;;;;;;;0.90;0.90;;;22.20;64.70;;;;;;5052866;28;20179;-73
2023/08/27 00:44:13;;;;;;;0.68;0.68;;;22.20;64.70;;;;;;5053191;28;20193;-73
2023/08/27 00:46:39;;;;;;;1.88;1.15;;;22.20;64.80;;;;;;5053415;28;20175;-74
2023/08/27 00:49:04;;;;;;;1.98;0.70;;;22.20;64.70;;;;;;5050968;28;20237;-73
2023/08/27 00:51:30;;;;;;;0.90;0.88;;;22.20;64.80;;;;;;5053239;28;20669;-72
2023/08/27 00:53:56;;;;;;;0.80;0.80;;;22.20;64.70;;;;;;5052244;28;20179;-73
2023/08/27 00:56:21;;;;;;;0.73;0.73;;;22.20;64.80;;;;;;5051126;28;20182;-72
2023/08/27 00:58:47;;;;;;;0.63;0.63;;;22.20;64.80;;;;;;5053317;28;20175;-73
2023/08/27 01:01:13;;;;;;;0.70;0.70;;;22.20;64.80;;;;;;5050980;28;20522;-73
2023/08/27 01:03:38;;;;;;;1.08;0.85;;;22.20;64.80;;;;;;5053116;28;20230;-73
2023/08/27 01:06:04;;;;;;;2.45;0.90;;;22.20;64.90;;;;;;5051638;28;20183;-73
2023/08/27 01:08:42;;;;;;;0.90;0.90;;;22.20;64.80;;;;;;5052333;28;20215;-73
2023/08/27 01:11:12;;;;;;;0.90;0.90;;;22.20;64.90;;;;;;5052861;28;20228;-72
2023/08/27 01:13:45;;;;;;;0.70;0.70;;;22.20;64.80;;;;;;5052195;28;20210;-72
2023/08/27 01:16:11;;;;;;;0.90;0.82;;;22.10;64.90;;;;;;5051985;28;20171;-71
2023/08/27 01:18:36;;;;;;;0.93;0.73;;;22.20;64.90;;;;;;5051446;28;20657;-72
2023/08/27 01:21:20;;;;;;;0.80;0.80;;;22.10;64.90;;;;;;5051419;28;20203;-72
2023/08/27 01:23:45;;;;;;;0.70;0.70;;;22.10;64.80;;;;;;5051054;28;20178;-71
2023/08/27 01:26:13;;;;;;;1.40;1.20;;;22.20;64.90;;;;;;5052538;28;20182;-71
2023/08/27 01:28:43;;;;;;;2.05;1.25;;;22.20;64.90;;;;;;5051781;28;20260;-73
2023/08/27 01:31:10;;;;;;;1.73;0.90;;;22.10;64.80;;;;;;5050591;28;20175;-72
2023/08/27 01:33:36;;;;;;;0.60;0.60;;;22.10;64.90;;;;;;5053100;28;20543;-74
2023/08/27 01:36:02;;;;;;;0.93;0.80;;;22.10;64.90;;;;;;5051456;28;20660;-74
2023/08/27 01:38:28;;;;;;;1.20;1.00;;;22.10;64.90;;;;;;5050851;28;20183;-72
2023/08/27 01:40:54;;;;;;;1.15;1.05;;;22.10;65.00;;;;;;5051600;28;20661;-73
2023/08/27 01:43:19;;;;;;;0.80;0.80;;;22.10;64.90;;;;;;5051590;28;20174;-72
2023/08/27 01:45:45;;;;;;;0.73;0.70;;;22.10;64.90;;;;;;5052620;28;20180;-73
2023/08/27 01:48:11;;;;;;;1.30;0.90;;;22.10;64.90;;;;;;5051973;28;20717;-72
2023/08/27 01:50:36;;;;;;;0.70;0.70;;;22.10;64.90;;;;;;5052028;28;20175;-73
2023/08/27 01:53:02;;;;;;;0.88;0.88;;;22.10;65.00;;;;;;5052409;28;20653;-72
2023/08/27 01:55:28;;;;;;;0.93;0.93;;;22.10;64.90;;;;;;5052570;28;20172;-72
2023/08/27 01:57:54;;;;;;;0.80;0.80;;;22.10;64.90;;;;;;5051819;28;20178;-74
2023/08/27 02:00:20;;;;;;;0.60;0.60;;;22.10;64.90;;;;;;5052134;28;20175;-72
2023/08/27 02:02:46;;;;;;;1.67;0.90;;;22.00;64.90;;;;;;5052679;28;20533;-73
2023/08/27 02:05:11;;;;;;;4.00;1.30;;;22.10;65.00;;;;;;5051537;28;20664;-72
2023/08/27 02:07:38;;;;;;;0.70;0.65;;;22.10;65.00;;;;;;5052375;28;20203;-73
2023/08/27 02:10:06;;;;;;;0.93;0.93;;;22.00;64.90;;;;;;5052028;28;20637;-73
2023/08/27 02:12:32;;;;;;;1.15;0.70;;;22.10;65.00;;;;;;5051566;28;20667;-72
2023/08/27 02:14:58;;;;;;;0.90;0.80;;;22.10;65.00;;;;;;5052016;28;20187;-72
2023/08/27 02:17:23;;;;;;;1.33;0.90;;;22.10;65.00;;;;;;5052386;28;20673;-72
2023/08/27 02:19:49;;;;;;;0.50;0.50;;;22.10;65.00;;;;;;5051445;28;20203;-72
2023/08/27 02:22:14;;;;;;;1.20;1.10;;;22.10;65.00;;;;;;5051995;28;20176;-70
2023/08/27 02:24:40;;;;;;;0.65;0.65;;;22.10;65.00;;;;;;5052302;28;20687;-72
2023/08/27 02:27:05;;;;;;;0.70;0.70;;;22.00;64.90;;;;;;5051095;28;20194;-72
2023/08/27 02:29:32;;;;;;;0.60;0.60;;;22.10;65.00;;;;;;5053292;28;20187;-72
2023/08/27 02:31:57;;;;;;;0.88;0.70;;;22.00;64.90;;;;;;5055949;28;20206;-75
2023/08/27 02:34:23;;;;;;;0.70;0.70;;;22.00;64.90;;;;;;5055035;28;20202;-72
2023/08/27 02:36:48;;;;;;;0.70;0.70;;;22.10;65.00;;;;;;5056094;28;20183;-74
2023/08/27 02:39:14;;;;;;;0.70;0.70;;;22.00;65.00;;;;;;5055618;28;20638;-72
2023/08/27 02:41:40;;;;;;;0.95;0.95;;;22.00;65.00;;;;;;5055107;28;20622;-73
2023/08/27 02:44:05;;;;;;;0.93;0.80;;;22.00;65.00;;;;;;5055319;28;20220;-73
2023/08/27 02:46:31;;;;;;;0.75;0.75;;;22.00;65.00;;;;;;5055528;28;20309;-73
2023/08/27 02:48:56;;;;;;;0.80;0.80;;;22.00;65.00;;;;;;5054673;28;20222;-73
2023/08/27 02:51:22;;;;;;;0.75;0.75;;;22.00;65.00;;;;;;5055508;28;20642;-72
2023/08/27 02:53:51;;;;;;;0.70;0.70;;;22.00;65.00;;;;;;5054930;28;20267;-73
2023/08/27 02:56:17;;;;;;;0.68;0.68;;;22.00;65.00;;;;;;5055231;28;20250;-72
2023/08/27 02:58:42;;;;;;;0.95;0.95;;;22.00;65.10;;;;;;5055660;28;20187;-73
2023/08/27 03:01:08;;;;;;;0.90;0.90;;;22.00;65.00;;;;;;5054541;28;20187;-72
2023/08/27 03:03:33;;;;;;;0.60;0.60;;;22.00;65.00;;;;;;5055287;28;20194;-73
2023/08/27 03:06:00;;;;;;;1.00;0.90;;;22.00;65.80;;;;;;5055038;28;20179;-73
2023/08/27 03:08:25;;;;;;;1.08;0.68;;;22.00;65.00;;;;;;5054452;28;20572;-72
2023/08/27 03:10:51;;;;;;;0.65;0.65;;;21.90;64.90;;;;;;5055195;28;20642;-73
2023/08/27 03:13:17;;;;;;;0.57;0.57;;;22.00;65.10;;;;;;5054772;28;20543;-72
2023/08/27 03:15:42;;;;;;;2.72;0.80;;;21.90;64.90;;;;;;5054645;28;20163;-71
2023/08/27 03:18:09;;;;;;;2.10;0.80;;;21.90;64.90;;;;;;5054945;28;20266;-72
2023/08/27 03:20:35;;;;;;;0.75;0.75;;;21.90;64.90;;;;;;5055089;28;20171;-71
2023/08/27 03:23:00;;;;;;;1.35;1.00;;;21.90;65.00;;;;;;5054003;28;20179;-73
2023/08/27 03:25:26;;;;;;;1.10;1.00;;;22.00;65.10;;;;;;5054826;28;20220;-71
2023/08/27 03:27:52;;;;;;;0.90;0.90;;;21.90;65.00;;;;;;5054785;28;20298;-73
2023/08/27 03:30:17;;;;;;;1.67;0.75;;;21.90;65.00;;;;;;5054012;28;20552;-71
2023/08/27 03:32:43;;;;;;;0.70;0.70;;;22.00;65.10;;;;;;5054977;28;20541;-73
2023/08/27 03:35:09;;;;;;;0.70;0.70;;;22.00;65.00;;;;;;5054568;28;20316;-74
2023/08/27 03:37:34;;;;;;;0.65;0.65;;;21.90;65.00;;;;;;5054048;28;20664;-74
2023/08/27 03:40:01;;;;;;;0.80;0.80;;;21.90;65.00;;;;;;5054545;28;20171;-73
2023/08/27 03:42:26;;;;;;;0.70;0.70;;;21.90;64.90;;;;;;5054486;28;20183;-72
2023/08/27 03:44:52;;;;;;;1.00;0.90;;;21.90;65.00;;;;;;5053891;28;20224;-74
2023/08/27 03:47:18;;;;;;;1.85;1.02;;;21.90;65.80;;;;;;5054394;28;20206;-72
2023/08/27 03:49:43;;;;;;;0.68;0.68;;;21.90;65.00;;;;;;5054377;28;20309;-73
2023/08/27 03:52:09;;;;;;;1.17;0.90;;;21.90;65.00;;;;;;5053746;28;20168;-73
2023/08/27 03:54:34;;;;;;;0.70;0.70;;;21.90;65.00;;;;;;5054578;28;20607;-72
2023/08/27 03:57:00;;;;;;;0.88;0.88;;;21.90;65.00;;;;;;5053314;28;20586;-73
2023/08/27 03:59:25;;;;;;;0.70;0.70;;;21.90;65.00;;;;;;5054327;28;20599;-72
2023/08/27 04:01:52;;;;;;;0.70;0.70;;;21.90;65.00;;;;;;5054157;28;20182;-73
2023/08/27 04:04:18;;;;;;;0.80;0.80;;;21.90;64.90;;;;;;5053273;28;20580;-72
2023/08/27 04:06:43;;;;;;;0.63;0.63;;;21.90;64.90;;;;;;5054194;28;20646;-73
2023/08/27 04:09:09;;;;;;;0.80;0.80;;;21.90;65.00;;;;;;5053770;28;20297;-72
2023/08/27 04:11:35;;;;;;;1.13;0.88;;;21.90;64.90;;;;;;5053377;28;20172;-72
2023/08/27 04:14:00;;;;;;;0.80;0.80;;;21.90;65.00;;;;;;5054033;28;20175;-72
2023/08/27 04:16:26;;;;;;;1.08;0.98;;;21.90;64.90;;;;;;5053984;28;20254;-69
2023/08/27 04:18:51;;;;;;;1.05;0.85;;;21.90;65.10;;;;;;5053382;28;20183;-73
2023/08/27 04:21:17;;;;;;;0.88;0.88;;;21.90;65.10;;;;;;5053617;28;20186;-71
2023/08/27 04:23:42;;;;;;;0.70;0.70;;;21.90;65.00;;;;;;5053891;28;20173;-70
2023/08/27 04:26:08;;;;;;;1.05;0.63;;;21.90;65.10;;;;;;5052797;28;20208;-71
2023/08/27 04:28:33;;;;;;;1.02;0.88;;;21.80;65.00;;;;;;5053842;28;20207;-72
2023/08/27 04:30:59;;;;;;;0.98;0.88;;;21.80;65.00;;;;;;5053704;28;20645;-73
2023/08/27 04:33:25;;;;;;;1.00;0.77;;;21.90;65.10;;;;;;5052964;28;20256;-72
2023/08/27 04:35:52;;;;;;;1.15;0.80;;;21.80;65.00;;;;;;5053664;28;20665;-75
2023/08/27 04:38:18;;;;;;;0.90;0.90;;;21.80;65.10;;;;;;5053379;28;20208;-73
2023/08/27 04:40:43;;;;;;;1.05;0.90;;;21.80;65.10;;;;;;5052714;28;20688;-71
2023/08/27 04:43:09;;;;;;;0.70;0.70;;;21.80;65.10;;;;;;5053148;28;20225;-73
2023/08/27 04:45:34;;;;;;;1.20;0.90;;;21.80;65.10;;;;;;5053440;28;20175;-73
2023/08/27 04:48:00;;;;;;;1.20;1.15;;;21.80;65.10;;;;;;5052309;28;20227;-73
2023/08/27 04:50:25;;;;;;;0.80;0.80;;;21.80;65.10;;;;;;5053344;28;20630;-72
2023/08/27 04:52:51;;;;;;;1.23;0.90;;;21.80;65.10;;;;;;5052905;28;20579;-72
2023/08/27 04:55:17;;;;;;;1.60;0.90;;;21.80;65.10;;;;;;5052230;28;21070;-73
2023/08/27 04:57:43;;;;;;;1.30;1.20;;;21.80;65.00;;;;;;5053119;28;20203;-72
2023/08/27 05:00:13;;;;;;;1.27;1.10;;;21.80;65.10;;;;;;5052975;28;20201;-72
2023/08/27 05:02:39;;;;;;;1.35;0.98;;;21.80;65.20;;;;;;5053310;28;20545;-73
2023/08/27 05:05:05;;;;;;;1.13;1.00;;;21.80;65.10;;;;;;5052966;28;20167;-73
2023/08/27 05:07:31;;;;;;;1.05;1.00;;;21.80;65.10;;;;;;5052253;28;20206;-73
2023/08/27 05:09:56;;;;;;;1.23;1.13;;;21.80;65.10;;;;;;5052963;28;20220;-73
2023/08/27 05:12:22;;;;;;;1.50;0.77;;;21.80;65.20;;;;;;5052777;28;20179;-71
2023/08/27 05:14:47;;;;;;;0.85;0.80;;;21.80;65.10;;;;;;5052447;28;20179;-71
2023/08/27 05:17:13;;;;;;;1.38;0.90;;;21.80;65.10;;;;;;5052829;28;20638;-72
2023/08/27 05:19:38;;;;;;;1.05;0.95;;;21.80;65.20;;;;;;5052867;28;20194;-70
2023/08/27 05:22:04;;;;;;;1.05;0.95;;;21.80;65.20;;;;;;5052073;28;20175;-72
2023/08/27 05:24:30;;;;;;;0.77;0.77;;;21.80;65.20;;;;;;5052920;28;20178;-72
2023/08/27 05:26:55;;;;;;;1.10;1.00;;;21.80;65.10;;;;;;5052907;28;20186;-72
2023/08/27 05:29:21;;;;;;;1.00;0.90;;;21.80;65.10;;;;;;5051963;28;20183;-71
2023/08/27 05:31:46;;;;;;;1.17;1.13;;;21.80;65.10;;;;;;5052684;28;20171;-73
2023/08/27 05:34:12;;;;;;;1.20;0.88;;;21.70;65.10;;;;;;5052604;28;20190;-73
2023/08/27 05:36:37;;;;;;;0.88;0.88;;;21.80;65.20;;;;;;5052133;28;20174;-73
2023/08/27 05:39:05;;;;;;;1.00;0.90;;;21.80;65.10;;;;;;5052424;28;20172;-73
2023/08/27 05:41:30;;;;;;;0.90;0.80;;;21.80;65.10;;;;;;5052580;28;20522;-73
2023/08/27 05:43:56;;;;;;;1.02;0.93;;;21.80;65.20;;;;;;5051769;28;20185;-73
2023/08/27 05:46:22;;;;;;;0.85;0.85;;;21.80;65.20;;;;;;5052275;28;20190;-73
2023/08/27 05:48:47;;;;;;;1.38;1.00;;;21.80;65.20;;;;;;5052537;28;20218;-73
2023/08/27 05:51:13;;;;;;;1.00;0.90;;;21.80;65.10;;;;;;5051652;28;20503;-73
2023/08/27 05:53:38;;;;;;;0.88;0.88;;;21.80;65.20;;;;;;5052805;28;20539;-72
2023/08/27 05:56:04;;;;;;;1.50;1.13;;;21.80;65.10;;;;;;5052175;28;20172;-72
2023/08/27 05:58:30;;;;;;;1.33;0.90;;;21.80;65.20;;;;;;5051855;28;20225;-74
2023/08/27 06:00:56;;;;;;;0.70;0.70;;;21.80;65.10;;;;;;5052596;28;20171;-73
2023/08/27 06:03:22;;;;;;;0.80;0.75;;;21.80;65.10;;;;;;5052172;28;20661;-72
2023/08/27 06:05:47;;;;;;;1.67;1.10;;;21.80;65.10;;;;;;5054885;28;20175;-73
2023/08/27 06:08:13;;;;;;;0.98;0.70;;;21.80;65.00;;;;;;5056013;28;20586;-73
2023/08/27 06:10:38;;;;;;;0.80;0.80;;;21.80;65.00;;;;;;5055564;28;20174;-73
2023/08/27 06:13:04;;;;;;;1.77;0.90;;;21.80;65.00;;;;;;5056219;28;20484;-73
2023/08/27 06:15:34;;;;;;;1.15;0.90;;;21.80;65.00;;;;;;5056082;28;20177;-72
2023/08/27 06:18:03;;;;;;;1.20;0.90;;;21.90;65.00;;;;;;5055343;28;20336;-73
2023/08/27 06:20:29;;;;;;;0.95;0.90;;;21.90;65.10;;;;;;5056025;28;20175;-71
2023/08/27 06:22:54;;;;;;;1.05;0.88;;;21.80;65.00;;;;;;5056060;28;20179;-72
2023/08/27 06:25:22;;;;;;;1.10;0.80;;;21.90;65.00;;;;;;5055107;28;20673;-71
2023/08/27 06:27:48;;;;;;;0.70;0.70;;;21.90;64.90;;;;;;5056073;28;20214;-72
2023/08/27 06:30:14;;;;;;;1.27;1.17;;;21.90;64.90;;;;;;5055440;28;20550;-71
2023/08/27 06:32:40;;;;;;;0.70;0.70;;;21.90;65.00;;;;;;5055283;28;20190;-75
2023/08/27 06:35:06;;;;;;;0.80;0.80;;;21.90;65.00;;;;;;5055447;28;20168;-74
2023/08/27 06:37:31;;;;;;;1.25;0.90;;;21.80;65.00;;;;;;5055680;28;20183;-75
2023/08/27 06:39:57;;;;;;;1.10;1.00;;;21.80;65.00;;;;;;5055378;28;20168;-72
2023/08/27 06:42:25;;;;;;;0.80;0.80;;;21.80;65.10;;;;;;5055746;28;20650;-72
2023/08/27 06:44:50;;;;;;;1.25;1.00;;;21.80;65.10;;;;;;5055751;28;20548;-73
2023/08/27 06:47:16;;;;;;;1.80;0.90;;;21.80;65.10;;;;;;5054647;28;20171;-72
2023/08/27 06:49:42;;;;;;;0.80;0.80;;;21.90;65.10;;;;;;5055445;28;20701;-73
2023/08/27 06:52:07;;;;;;;0.70;0.70;;;21.90;65.20;;;;;;5055193;28;20178;-72
2023/08/27 06:54:33;;;;;;;0.80;0.80;;;21.80;65.10;;;;;;5054934;28;20177;-72
2023/08/27 06:56:59;;;;;;;1.30;0.95;;;21.80;65.10;;;;;;5055272;28;20172;-72
2023/08/27 06:59:24;;;;;;;0.70;0.70;;;21.90;65.10;;;;;;5055314;28;20185;-72
2023/08/27 07:01:50;;;;;;;0.70;0.70;;;21.90;65.10;;;;;;5054738;28;20258;-73
2023/08/27 07:04:16;;;;;;;0.80;0.80;;;21.90;65.10;;;;;;5054982;28;20186;-72
2023/08/27 07:06:41;;;;;;;0.77;0.77;;;21.90;65.10;;;;;;5055485;28;20183;-73
2023/08/27 07:09:07;;;;;;;1.13;0.90;;;21.90;65.00;;;;;;5053937;28;20321;-74
2023/08/27 07:11:33;;;;;;;1.00;0.90;;;21.90;64.90;;;;;;5055379;28;20183;-72
2023/08/27 07:13:59;;;;;;;1.02;0.80;;;21.90;65.00;;;;;;5054418;28;20198;-72
2023/08/27 07:16:26;;;;;;;0.80;0.80;;;21.90;64.90;;;;;;5054651;28;21090;-70
2023/08/27 07:18:52;;;;;;;0.85;0.85;;;22.00;64.90;;;;;;5055100;28;20224;-71
2023/08/27 07:21:18;;;;;;;0.85;0.70;;;22.00;64.70;;;;;;5053967;28;20179;-71
2023/08/27 07:23:43;;;;;;;0.80;0.80;;;22.00;64.50;;;;;;5055094;28;20201;-71
2023/08/27 07:26:09;;;;;;;0.80;0.80;;;22.00;64.40;;;;;;5054850;28;20198;-71
2023/08/27 07:28:34;;;;;;;0.80;0.80;;;22.00;64.50;;;;;;5054063;28;20665;-72
2023/08/27 07:31:00;;;;;;;0.80;0.80;;;22.00;64.60;;;;;;5054689;28;20178;-72
2023/08/27 07:33:26;;;;;;;0.77;0.73;;;22.00;64.40;;;;;;5054674;28;20649;-72
2023/08/27 07:35:52;;;;;;;0.60;0.60;;;22.00;64.50;;;;;;5054131;28;20208;-74
2023/08/27 07:38:17;;;;;;;1.35;0.80;;;22.00;64.60;;;;;;5054544;28;20203;-72
2023/08/27 07:40:43;;;;;;;1.00;0.93;;;22.00;64.70;;;;;;5054793;28;20178;-72
2023/08/27 07:43:08;;;;;;;0.80;0.80;;;22.00;64.60;;;;;;5053575;28;20179;-72
2023/08/27 07:45:34;;;;;;;1.35;1.00;;;22.00;65.40;;;;;;5054615;28;20510;-73
2023/08/27 07:48:00;;;;;;;0.90;0.90;;;22.10;64.70;;;;;;5053918;28;20234;-72
2023/08/27 07:50:28;;;;;;;1.05;0.70;;;22.10;64.60;;;;;;5053617;28;20183;-72
2023/08/27 07:52:54;;;;;;;1.15;1.00;;;22.10;64.70;;;;;;5054534;28;20179;-71
2023/08/27 07:55:20;;;;;;;0.95;0.80;;;22.00;64.70;;;;;;5054015;28;20553;-71
2023/08/27 07:57:45;;;;;;;0.95;0.85;;;22.00;65.50;;;;;;5053781;28;20233;-72
2023/08/27 08:00:13;;;;;;;0.80;0.80;;;22.10;64.80;;;;;;5054141;28;20175;-72
2023/08/27 08:02:40;;;;;;;0.80;0.80;;;22.10;64.80;;;;;;5054242;28;20237;-73
2023/08/27 08:05:06;;;;;;;0.90;0.90;;;22.10;64.70;;;;;;5053456;28;20179;-73
2023/08/27 08:07:33;;;;;;;0.93;0.90;;;22.10;64.50;;;;;;5054156;28;20286;-72
2023/08/27 08:09:58;;;;;;;0.80;0.80;;;22.20;64.50;;;;;;5054002;28;20167;-72
2023/08/27 08:12:24;;;;;;;1.63;0.90;;;22.20;64.30;;;;;;5053364;28;20676;-71
2023/08/27 08:14:49;;;;;;;0.73;0.73;;;22.20;64.30;;;;;;5054174;28;20662;-71
2023/08/27 08:17:15;;;;;;;0.80;0.80;;;22.20;64.30;;;;;;5052799;28;20201;-71
2023/08/27 08:19:40;;;;;;;1.08;0.93;;;22.20;64.40;;;;;;5053839;28;20168;-71
2023/08/27 08:22:06;;;;;;;0.93;0.70;;;22.20;64.30;;;;;;5053715;28;20232;-71
2023/08/27 08:24:31;;;;;;;1.02;0.90;;;22.20;64.40;;;;;;5053272;28;20938;-72
2023/08/27 08:26:57;;;;;;;1.20;0.80;;;22.20;64.50;;;;;;5053116;28;20580;-71
2023/08/27 08:29:22;;;;;;;1.88;0.95;;;22.20;64.60;;;;;;5053640;28;20218;-71
2023/08/27 08:31:48;;;;;;;1.13;1.08;;;22.20;64.40;;;;;;5052887;28;20171;-75
2023/08/27 08:34:14;;;;;;;1.23;0.93;;;22.30;64.30;;;;;;5053512;28;20274;-72
2023/08/27 08:36:40;;;;;;;1.00;1.00;;;22.30;64.20;;;;;;5053802;28;20254;-75
2023/08/27 08:39:05;;;;;;;1.00;0.80;;;22.40;64.20;;;;;;5052603;28;20262;-73
2023/08/27 08:41:31;;;;;;;0.80;0.80;;;22.40;64.00;;;;;;5053609;28;20566;-72
2023/08/27 08:44:00;;;;;;;0.98;0.90;;;22.50;64.00;;;;;;5052556;28;20737;-73
2023/08/27 08:46:32;;;;;;;1.45;0.90;;;22.50;63.90;;;;;;5051433;28;20229;-73
2023/08/27 08:48:58;;;;;;;0.88;0.88;;;22.50;63.80;;;;;;5051933;28;20230;-74
2023/08/27 08:51:27;;;;;;;1.48;0.80;;;22.60;63.70;;;;;;5052235;28;20254;-73
2023/08/27 08:53:55;;;;;;;1.02;0.70;;;22.60;63.70;;;;;;5052701;28;20199;-71
2023/08/27 08:56:26;;;;;;;1.17;0.85;;;22.60;63.80;;;;;;5051899;28;20175;-71
2023/08/27 08:58:56;;;;;;;1.42;0.80;;;22.50;63.90;;;;;;5052004;28;20214;-73
2023/08/27 09:01:22;;;;;;;1.15;0.70;;;22.50;64.90;;;;;;5052067;28;20179;-73
2023/08/27 09:03:48;;;;;;;1.05;0.98;;;22.40;64.10;;;;;;5051940;28;20183;-74
2023/08/27 09:06:19;;;;;;;0.90;0.80;;;22.50;64.10;;;;;;5052855;28;20182;-71
2023/08/27 09:08:45;;;;;;;1.15;1.05;;;22.40;64.20;;;;;;5052355;28;20677;-73
2023/08/27 09:11:11;;;;;;;1.10;0.80;;;22.30;64.30;;;;;;5051284;28;20186;-73
2023/08/27 09:13:38;;;;;;;1.60;1.00;;;22.40;64.40;;;;;;5053733;28;20271;-73
2023/08/27 09:16:04;;;;;;;1.73;1.00;;;22.30;64.50;;;;;;5056176;28;20308;-72
2023/08/27 09:18:30;;;;;;;1.38;0.80;;;22.30;64.60;;;;;;5052992;28;20566;-72
2023/08/27 09:20:58;;;;;;;1.00;1.00;;;22.40;64.50;;;;;;5051869;28;20172;-72
2023/08/27 09:23:23;;;;;;;0.82;0.82;;;22.40;64.30;;;;;;5052754;28;20182;-72
2023/08/27 09:25:50;;;;;;;0.98;0.85;;;22.50;64.10;;;;;;5052724;28;20173;-72
2023/08/27 09:28:17;;;;;;;1.10;0.82;;;22.50;64.10;;;;;;5050115;28;20218;-71
2023/08/27 09:30:42;;;;;;;1.67;0.98;;;22.40;64.10;;;;;;5054507;28;20221;-73
2023/08/27 09:33:08;;;;;;;1.40;1.00;;;22.40;64.10;;;;;;5056640;28;20207;-74
2023/08/27 09:35:40;;;;;;;1.20;0.90;;;22.50;64.10;;;;;;5056438;28;20178;-74
2023/08/27 09:38:06;;;;;;;0.85;0.80;;;22.40;64.30;;;;;;5066688;28;20236;-73
2023/08/27 09:40:32;;;;;;;1.02;0.90;;;22.40;64.40;;;;;;5059708;28;20176;-73
2023/08/27 09:43:08;;;;;;;1.05;0.95;;;22.30;64.50;;;;;;5045938;28;20175;-74
2023/08/27 09:45:34;;;;;;;0.80;0.80;;;22.30;64.50;;;;;;5053610;28;20182;-73
2023/08/27 09:48:00;;;;;;;1.38;0.90;;;22.30;64.50;;;;;;5053302;28;20230;-74
2023/08/27 09:50:29;;;;;;;1.02;0.80;;;22.30;64.60;;;;;;5069719;28;20182;-72
2023/08/27 09:53:05;;;;;;;1.10;0.90;;;22.30;64.60;;;;;;5071437;28;20177;-72
2023/08/27 09:55:32;;;;;;;0.80;0.80;;;22.30;64.70;;;;;;5072534;28;20641;-72
2023/08/27 09:57:58;;;;;;;0.77;0.77;;;22.30;64.70;;;;;;5057572;28;20649;-73
2023/08/27 10:00:24;;;;;;;1.48;0.90;;;22.20;64.60;;;;;;5051126;28;20175;-72
2023/08/27 10:02:49;;;;;;;1.73;1.10;;;22.20;64.70;;;;;;5050599;28;20171;-74
2023/08/27 10:05:15;;;;;;;1.10;1.00;;;22.30;64.70;;;;;;5051989;28;20186;-74
2023/08/27 10:07:41;;;;;;;0.85;0.70;;;22.30;64.40;;;;;;5052229;28;20210;-74
2023/08/27 10:10:07;;;;;;;1.58;1.00;;;22.40;64.20;;;;;;5049988;28;20179;-73
2023/08/27 10:12:32;;;;;;;2.20;0.77;;;22.40;64.10;;;;;;5049314;28;20190;-73
2023/08/27 10:14:59;;;;;;;1.38;1.00;;;22.30;64.20;;;;;;5049585;28;20187;-73
2023/08/27 10:17:25;;;;;;;1.10;0.82;;;22.40;64.20;;;;;;5051615;28;20181;-70
2023/08/27 10:19:50;;;;;;;1.45;0.93;;;22.40;64.20;;;;;;5051300;28;20175;-71
2023/08/27 10:22:16;;;;;;;1.30;0.82;;;22.40;64.10;;;;;;5034117;28;20172;-70
2023/08/27 10:24:41;;;;;;;1.20;0.95;;;22.40;64.20;;;;;;5033738;28;20313;-71
2023/08/27 10:27:07;;;;;;;1.15;1.05;;;22.40;64.10;;;;;;5050878;28;20189;-71
2023/08/27 10:29:33;;;;;;;1.00;0.80;;;22.50;63.90;;;;;;5052279;28;20236;-73
2023/08/27 10:31:59;;;;;;;1.02;0.82;;;22.60;63.80;;;;;;5050193;28;20508;-75
2023/08/27 10:34:27;;;;;;;1.13;1.02;;;22.60;63.50;;;;;;5051996;28;20201;-72
2023/08/27 10:36:54;;;;;;;1.10;1.00;;;22.60;63.70;;;;;;5051871;28;20172;-72
2023/08/27 10:39:26;;;;;;;1.38;1.10;;;22.50;63.80;;;;;;5050123;28;20198;-73
2023/08/27 10:41:52;;;;;;;0.93;0.93;;;22.50;64.00;;;;;;5050901;28;20175;-73
2023/08/27 10:44:19;;;;;;;1.02;0.98;;;22.40;64.10;;;;;;5051976;28;20711;-73
2023/08/27 10:47:09;;;;;;;2.00;1.05;;;22.40;64.40;;;;;;5051394;28;20183;-73
2023/08/27 10:49:38;;;;;;;1.45;1.00;;;22.30;64.50;;;;;;5052029;28;20230;-72
2023/08/27 10:52:14;;;;;;;1.25;0.98;;;22.30;64.60;;;;;;5054428;28;20167;-72
2023/08/27 10:54:39;;;;;;;0.95;0.70;;;22.30;64.60;;;;;;5055947;28;20183;-72
2023/08/27 10:57:23;;;;;;;1.27;0.90;;;22.20;64.60;;;;;;5055410;28;20266;-72
2023/08/27 10:59:49;;;;;;;1.33;1.10;;;22.20;64.70;;;;;;5054692;28;20182;-73
2023/08/27 11:02:17;;;;;;;1.10;1.00;;;22.20;64.70;;;;;;5055248;28;20175;-72
2023/08/27 11:04:47;;;;;;;1.38;1.02;;;22.20;64.60;;;;;;5055735;28;20179;-74
2023/08/27 11:07:19;;;;;;;1.55;1.17;;;22.20;64.60;;;;;;5054119;28;20179;-73
2023/08/27 11:09:55;;;;;;;2.20;1.00;;;22.20;64.60;;;;;;5055348;28;20218;-73
2023/08/27 11:12:25;;;;;;;1.00;0.90;;;22.20;64.50;;;;;;5054838;28;20183;-72
2023/08/27 11:14:51;;;;;;;0.60;0.60;;;22.20;64.50;;;;;;5054767;28;20182;-72
2023/08/27 11:17:27;;;;;;;1.13;1.02;;;22.20;64.30;;;;;;5055062;28;20214;-71
2023/08/27 11:19:53;;;;;;;1.25;0.98;;;22.20;64.30;;;;;;5055258;28;20234;-71
2023/08/27 11:22:19;;;;;;;1.27;0.80;;;22.20;64.30;;;;;;5053982;28;20214;-71
2023/08/27 11:24:56;;;;;;;1.08;0.93;;;22.30;64.20;;;;;;5054747;28;20221;-72
2023/08/27 11:27:24;;;;;;;0.95;0.80;;;22.30;64.00;;;;;;5053830;28;21005;-72
2023/08/27 11:29:51;;;;;;;1.00;0.70;;;22.30;63.90;;;;;;5054775;28;20194;-72
2023/08/27 11:32:17;;;;;;;1.95;0.93;;;22.30;64.00;;;;;;5054678;28;20176;-73
2023/08/27 11:34:46;;;;;;;0.80;0.75;;;22.30;64.10;;;;;;5054201;28;20195;-75
2023/08/27 11:37:12;;;;;;;0.77;0.77;;;22.30;64.20;;;;;;5054525;28;20249;-73
2023/08/27 11:39:38;;;;;;;1.27;0.88;;;22.20;64.20;;;;;;5054776;28;20220;-73
2023/08/27 11:42:11;;;;;;;1.20;0.80;;;22.20;64.30;;;;;;5054006;28;20186;-74
2023/08/27 11:44:46;;;;;;;0.70;0.70;;;22.10;64.40;;;;;;5054490;28;20547;-73
2023/08/27 11:47:12;;;;;;;0.70;0.70;;;22.10;64.40;;;;;;5054236;28;20201;-72
2023/08/27 11:49:38;;;;;;;1.10;1.00;;;22.10;64.50;;;;;;5053756;28;20239;-72
2023/08/27 11:52:04;;;;;;;1.00;0.90;;;22.00;64.50;;;;;;5054234;28;20648;-72
2023/08/27 11:54:31;;;;;;;0.82;0.80;;;22.00;64.50;;;;;;5055128;28;20266;-72
2023/08/27 11:56:57;;;;;;;0.70;0.70;;;22.00;64.70;;;;;;5053720;28;20229;-72
2023/08/27 11:59:24;;;;;;;1.05;0.85;;;22.00;64.80;;;;;;5054345;28;20218;-73
2023/08/27 12:01:50;;;;;;;2.58;1.00;;;22.00;64.80;;;;;;5053134;28;20179;-73
2023/08/27 12:04:16;;;;;;;0.98;0.80;;;22.00;64.70;;;;;;5053215;28;20168;-73
2023/08/27 12:06:56;;;;;;;0.85;0.85;;;22.00;64.70;;;;;;5053182;28;20179;-73
2023/08/27 12:09:27;;;;;;;0.80;0.77;;;22.00;64.70;;;;;;5053487;28;20221;-72
2023/08/27 12:11:53;;;;;;;0.98;0.90;;;22.00;64.70;;;;;;5054155;28;20651;-72
2023/08/27 12:14:24;;;;;;;0.90;0.77;;;22.00;64.50;;;;;;5053876;28;20209;-69
2023/08/27 12:16:49;;;;;;;0.98;0.88;;;22.00;64.50;;;;;;5053426;28;20175;-72
2023/08/27 12:19:15;;;;;;;1.65;0.90;;;22.00;64.40;;;;;;5053939;28;20518;-72
2023/08/27 12:21:55;;;;;;;0.70;0.70;;;22.00;64.40;;;;;;5054338;28;20653;-72
2023/08/27 12:24:32;;;;;;;0.98;0.88;;;22.00;64.30;;;;;;5052860;28;20738;-71
2023/08/27 12:27:04;;;;;;;0.60;0.60;;;22.00;64.40;;;;;;5053614;28;20175;-71
2023/08/27 12:29:35;;;;;;;0.82;0.77;;;22.10;64.30;;;;;;5053619;28;20217;-72
2023/08/27 12:32:08;;;;;;;0.82;0.82;;;22.10;64.20;;;;;;5052761;28;20183;-74
2023/08/27 12:34:36;;;;;;;0.68;0.68;;;22.10;63.90;;;;;;5053879;28;20210;-73
2023/08/27 12:37:03;;;;;;;1.27;0.75;;;22.20;63.60;;;;;;5053531;28;20179;-76
2023/08/27 12:39:29;;;;;;;0.70;0.70;;;22.20;63.70;;;;;;5052767;28;20182;-72
2023/08/27 12:41:55;;;;;;;0.60;0.60;;;22.10;63.70;;;;;;5053481;28;20689;-73
2023/08/27 12:44:20;;;;;;;1.27;0.90;;;22.30;63.80;;;;;;5053349;28;20313;-72